Flight Track Log - Related Links

Times and Time Zones

All times are in EDT time to prevent confusion due to time zone crossing. See the CTL22 flight status page for this flight to view local times or setup timezone preferences in your user account.

Time Position Orientation Groundspeed Altitude Reporting Facility
EDT Latitude Longitude Course Direction KTS MPH feet Rate Location/Type
Thu 09:58:02 PM 42.0572 -82.8036 299° West 159 183 6,000  Level Cleveland Center
Thu 09:59:03 PM 42.0792 -82.8575 299° West 159 183 6,100  Climbing Cleveland Center
Thu 10:00:09 PM 42.1011 -82.9117 299° West 165 190 6,000  Descending Cleveland Center
Thu 10:01:16 PM 42.1142 -82.9792 285° West 161 185 6,100  Climbing Cleveland Center
Thu 10:02:11 PM 42.1236 -83.0328 283° West 162 186 6,000  Descending Cleveland Center
Thu 10:03:05 PM 42.1411 -83.0811 296° West 165 190 6,100 50 Climbing Cleveland Center
Thu 10:04:12 PM 42.1586 -83.1461 290° West 165 190 6,100 -50 Level Cleveland Center
Thu 10:05:06 PM 42.1761 -83.1972 295° West 164 189 6,000 -52 Descending Cleveland Center
Thu 10:06:07 PM 42.1958 -83.2514 301° West 161 185 6,000 52 Level Cleveland Center
Thu 10:07:02 PM 42.2133 -83.3025 295° West 159 183 6,100 52 Climbing Cleveland Center
Thu 10:08:02 PM 42.2286 -83.3567 291° West 158 182 6,100  Level Cleveland Center
Thu 10:09:03 PM 42.2503 -83.4081 300° West 155 178 6,100  Level Cleveland Center
Thu 10:10:10 PM 42.2697 -83.4678 294° West 156 180 6,100 -47 Level Cleveland Center
Thu 10:11:10 PM 42.2872 -83.5192 295° West 158 182 6,000 -52 Descending Cleveland Center
Thu 10:12:05 PM 42.3067 -83.5706 297° West 159 183 6,000  Level Cleveland Center
Thu 10:13:18 PM 42.3278 -83.6417 292° West 162 186 6,000  Level Cleveland Center
Thu 10:14:18 PM 42.3431 -83.6958 291° West 162 186 6,000 52 Level Cleveland Center
Thu 10:15:13 PM 42.3625 -83.7475 297° West 165 190 6,100 31 Climbing Cleveland Center
Thu 10:17:30 PM 42.4081 -83.8664 297° West 163 188 6,100  Level Chicago Center
Thu 10:18:32 PM 42.4275 -83.9219 295° West 164 189 6,100 -49 Level Chicago Center
Thu 10:19:33 PM 42.4475 -83.9792 295° West 165 190 6,000 49 Descending Chicago Center
Thu 10:20:35 PM 42.4656 -84.0342 294° West 163 188 6,200 49 Climbing Chicago Center
Thu 10:21:36 PM 42.4828 -84.0911 292° West 164 189 6,100  Descending Chicago Center
Thu 10:22:37 PM 42.5006 -84.1481 293° West 165 190 6,200 49 Climbing Chicago Center
Thu 10:23:39 PM 42.5183 -84.2175 289° West 164 189 6,200  Level Chicago Center
Thu 10:24:40 PM 42.5333 -84.2758 289° West 164 189 6,200 -49 Level Chicago Center
Thu 10:25:42 PM 42.5489 -84.3344 290° West 166 191 6,100 -49 Descending Chicago Center
Thu 10:26:43 PM 42.5644 -84.3931 290° West 166 191 6,100  Level Chicago Center
Thu 10:27:44 PM 42.5800 -84.4525 290° West 168 193 6,100 49 Level Chicago Center
Thu 10:28:46 PM 42.5961 -84.5106 291° West 166 191 6,200 49 Climbing Chicago Center
Thu 10:29:47 PM 42.6153 -84.5675 295° West 167 192 6,200  Level Chicago Center
Thu 10:30:49 PM 42.6367 -84.6242 297° West 168 193 6,200  Level Chicago Center
Thu 10:31:50 PM 42.6600 -84.6939 294° West 169 194 6,200 49 Level Chicago Center
Thu 10:32:51 PM 42.6739 -84.7542 287° West 169 194 6,300  Climbing Chicago Center
Thu 10:33:53 PM 42.6872 -84.8164 286° West 171 197 6,200 -49 Descending Chicago Center
Thu 10:34:54 PM 42.7019 -84.8750 289° West 167 192 6,200  Level Chicago Center
Thu 10:35:55 PM 42.7158 -84.9347 288° West 166 191 6,200 -49 Level Chicago Center
Thu 10:36:57 PM 42.7317 -84.9931 290° West 166 191 6,100 -49 Descending Chicago Center
Thu 10:37:58 PM 42.7475 -85.0500 291° West 164 189 6,100 -326 Level Chicago Center
Thu 10:39:00 PM 42.7706 -85.1097 299° West  Level FlightAware Approximate
Thu 10:40:01 PM 42.7764 -85.1761 299° West 176 203 5,100  Level Chicago Center
Thu 10:41:02 PM 42.7992 -85.2564 291° West 188 216 3,900 -984 Descending Chicago Center
Thu 10:42:03 PM 42.8192 -85.3217 293° West 188 216 3,100 -683 Descending Chicago Center
Thu 10:43:05 PM 42.8386 -85.3872 292° West 188 216 2,500 -537 Descending Chicago Center
Thu 10:44:06 PM 42.8575 -85.4428 295° West 177 204 2,000 -590 Descending Chicago Center
Thu 10:45:07 PM 42.8753 -85.4908 297° West 159 183 1,300 -488 Descending Chicago Center
Thu 10:46:09 PM 42.8897 -85.5294 297° West 149 171 1,000 -290 Descending Chicago Center
Thu 10:48:00 PM 42.8808 -85.5228 270° West  Level Estimated

Login

Don't have an account? Register now (free) for customized features, flight alerts, and more!